Time;durP1;ratioP1;P1;durP2;ratioP2;P2;SDS_P1;SDS_P2;PMS_P1;PMS_P2;Temp;Humidity;BMP_temperature;BMP_pressure;BME280_temperature;BME280_humidity;BME280_pressure;Samples;Min_cycle;Max_cycle;Signal;HPM_P1;HPM_P2
2022/11/22 00:00:20;;;;;;;8.40;3.90;;;1.80;99.90;3.10;95469.00;;;;5086516;28;20453;-73
2022/11/22 00:03:09;;;;;;;6.90;3.60;;;1.80;99.90;3.20;95471.00;;;;5088008;28;20445;-73
2022/11/22 00:05:58;;;;;;;5.63;3.70;;;1.90;99.90;3.20;95463.00;;;;5072038;28;20929;-73
2022/11/22 00:08:47;;;;;;;6.10;3.80;;;1.90;99.90;3.10;95451.00;;;;5079274;28;20777;-73
2022/11/22 00:11:35;;;;;;;4.37;3.13;;;2.00;99.90;3.20;95448.00;;;;5083686;28;20445;-72
2022/11/22 00:14:24;;;;;;;11.43;4.13;;;1.90;99.90;3.30;95432.00;;;;5081318;28;20430;-73
2022/11/22 00:17:14;;;;;;;7.10;3.80;;;2.00;99.90;3.10;95458.00;;;;5076503;28;21049;-73
2022/11/22 00:20:04;;;;;;;3.67;2.63;;;2.00;99.90;3.10;95439.00;;;;5088038;28;20417;-73
2022/11/22 00:22:52;;;;;;;3.60;2.97;;;2.00;99.90;3.00;95443.00;;;;5076686;28;20469;-73
2022/11/22 00:25:41;;;;;;;7.00;3.97;;;2.00;99.90;2.90;95428.00;;;;5075595;28;20463;-73
2022/11/22 00:28:30;;;;;;;4.57;3.83;;;1.80;99.90;3.00;95430.00;;;;5088270;28;20858;-71
2022/11/22 00:31:18;;;;;;;10.60;4.40;;;2.10;99.90;3.00;95425.00;;;;5087041;28;20479;-73
2022/11/22 00:34:09;;;;;;;5.97;3.90;;;1.90;99.90;3.10;95429.00;;;;5083739;28;20468;-73
2022/11/22 00:36:57;;;;;;;3.93;3.20;;;1.90;99.90;3.00;95417.00;;;;5077943;28;20897;-73
2022/11/22 00:39:46;;;;;;;7.70;3.83;;;1.90;99.90;3.10;95418.00;;;;5087600;28;20441;-73
2022/11/22 00:42:35;;;;;;;7.70;4.13;;;1.90;99.90;3.00;95409.00;;;;5087397;28;20477;-73
2022/11/22 00:45:23;;;;;;;2.87;2.57;;;1.90;99.90;3.00;95412.00;;;;5071965;28;20540;-73
2022/11/22 00:48:12;;;;;;;3.67;3.27;;;1.90;99.90;3.00;95424.00;;;;5077457;28;20454;-72
2022/11/22 00:51:02;;;;;;;5.77;3.70;;;1.80;99.90;3.10;95423.00;;;;5089154;28;20429;-73
2022/11/22 00:53:51;;;;;;;4.50;3.40;;;1.80;99.90;3.10;95419.00;;;;5087494;28;20449;-73
2022/11/22 00:56:39;;;;;;;3.70;2.87;;;1.80;99.90;2.90;95416.00;;;;5088086;28;20461;-73
2022/11/22 00:59:28;;;;;;;5.10;3.07;;;1.80;99.90;3.00;95415.00;;;;5075356;28;20417;-73
2022/11/22 01:02:17;;;;;;;6.10;4.10;;;1.90;99.90;3.00;95429.00;;;;5086019;28;21269;-73
2022/11/22 01:05:06;;;;;;;3.90;3.17;;;1.90;99.90;3.10;95423.00;;;;5084274;28;21329;-73
2022/11/22 01:07:56;;;;;;;10.17;3.43;;;1.90;99.90;3.20;95420.00;;;;5077111;28;20429;-73
2022/11/22 01:10:45;;;;;;;3.07;2.50;;;1.90;99.90;3.30;95426.00;;;;5088171;28;20456;-73
2022/11/22 01:13:35;;;;;;;4.13;3.37;;;1.90;99.90;3.30;95422.00;;;;5087923;28;20481;-73
2022/11/22 01:16:23;;;;;;;6.63;3.87;;;2.00;99.90;3.30;95431.00;;;;5091245;28;20495;-73
2022/11/22 01:19:12;;;;;;;3.80;3.50;;;2.00;99.90;3.30;95430.00;;;;5086530;28;20503;-73
2022/11/22 01:22:01;;;;;;;6.43;4.07;;;2.00;99.90;3.30;95432.00;;;;5092461;28;20442;-73
2022/11/22 01:24:51;;;;;;;3.93;2.83;;;2.00;99.90;3.30;95433.00;;;;5093024;28;20451;-73
2022/11/22 01:27:40;;;;;;;6.67;3.80;;;2.00;99.90;3.30;95433.00;;;;5083059;28;20514;-73
2022/11/22 01:30:29;;;;;;;5.47;3.73;;;2.10;99.90;3.20;95424.00;;;;5092789;28;20951;-73
2022/11/22 01:33:18;;;;;;;9.30;4.17;;;2.10;99.90;3.30;95437.00;;;;5092246;28;20581;-72
2022/11/22 01:36:07;;;;;;;3.23;2.73;;;2.10;99.90;3.10;95440.00;;;;5085219;28;20975;-71
2022/11/22 01:38:56;;;;;;;4.37;3.20;;;2.10;99.90;3.00;95432.00;;;;5079042;28;20983;-73
2022/11/22 01:41:46;;;;;;;4.53;3.17;;;2.00;99.90;3.10;95421.00;;;;5090394;28;20508;-73
2022/11/22 01:44:34;;;;;;;6.70;4.17;;;2.10;99.90;3.10;95421.00;;;;5091208;28;20425;-73
2022/11/22 01:47:25;;;;;;;6.87;3.77;;;1.90;99.90;3.10;95430.00;;;;5090922;28;20843;-73
2022/11/22 01:50:17;;;;;;;2.83;2.63;;;2.00;99.90;3.30;95437.00;;;;5079895;28;20426;-73
2022/11/22 01:53:10;;;;;;;5.27;3.13;;;2.10;99.90;3.40;95435.00;;;;5082475;28;20469;-73
2022/11/22 01:56:01;;;;;;;3.80;3.33;;;2.00;99.90;3.40;95423.00;;;;5086818;28;20429;-72
2022/11/22 01:58:56;;;;;;;6.60;4.07;;;2.10;99.90;3.50;95418.00;;;;5091221;28;20473;-73
2022/11/22 02:01:45;;;;;;;6.23;3.40;;;2.10;99.90;3.50;95411.00;;;;5085763;28;20430;-73
2022/11/22 02:04:37;;;;;;;4.37;3.43;;;2.20;99.90;3.40;95416.00;;;;5086964;28;20422;-73
2022/11/22 02:07:32;;;;;;;3.67;3.37;;;2.20;99.90;3.40;95419.00;;;;5088547;28;20950;-73
2022/11/22 02:10:24;;;;;;;5.57;3.70;;;2.20;99.90;3.50;95413.00;;;;5091531;28;20418;-72
2022/11/22 02:13:15;;;;;;;5.97;3.20;;;2.30;99.90;3.50;95415.00;;;;5090737;28;20434;-72
2022/11/22 02:16:05;;;;;;;4.00;3.33;;;2.20;99.90;3.50;95421.00;;;;5090866;28;20843;-73
2022/11/22 02:18:54;;;;;;;5.13;2.90;;;2.30;99.90;3.50;95407.00;;;;5089860;28;20992;-72
2022/11/22 02:21:46;;;;;;;4.70;3.20;;;2.50;99.90;3.40;95404.00;;;;5090153;28;20449;-73
2022/11/22 02:24:42;;;;;;;5.33;3.57;;;2.30;99.90;3.30;95417.00;;;;5082015;28;20421;-72
2022/11/22 02:27:32;;;;;;;3.00;2.50;;;2.30;99.90;3.30;95418.00;;;;5087445;28;21030;-73
2022/11/22 02:30:22;;;;;;;4.17;3.40;;;2.10;99.90;3.40;95409.00;;;;5089282;28;20502;-72
2022/11/22 02:33:11;;;;;;;5.40;3.03;;;2.40;99.90;3.40;95401.00;;;;5091248;28;20452;-72
2022/11/22 02:36:00;;;;;;;5.17;4.03;;;2.20;99.90;3.50;95394.00;;;;5090165;28;20463;-72
2022/11/22 02:38:49;;;;;;;4.20;3.03;;;2.30;99.90;3.50;95383.00;;;;5089547;28;20561;-73
2022/11/22 02:41:38;;;;;;;6.87;3.63;;;2.30;99.90;3.40;95383.00;;;;5089771;28;20420;-71
2022/11/22 02:44:28;;;;;;;9.43;4.23;;;2.30;99.90;3.50;95384.00;;;;5089903;28;20426;-72
2022/11/22 02:47:17;;;;;;;4.33;2.93;;;2.30;99.90;3.40;95374.00;;;;5083027;28;20437;-72
2022/11/22 02:50:07;;;;;;;9.53;4.03;;;2.30;99.90;3.30;95374.00;;;;5079647;28;20471;-72
2022/11/22 02:52:55;;;;;;;8.53;3.33;;;2.30;99.90;3.10;95382.00;;;;5078265;28;20457;-72
2022/11/22 02:55:44;;;;;;;4.70;3.67;;;2.20;99.90;3.10;95368.00;;;;5090092;28;20471;-72
2022/11/22 02:58:33;;;;;;;7.13;3.63;;;2.10;99.90;3.20;95371.00;;;;5090328;28;20550;-72
2022/11/22 03:01:23;;;;;;;7.07;4.20;;;2.20;99.90;3.10;95368.00;;;;5087583;28;20429;-72
2022/11/22 03:04:23;;;;;;;7.30;3.50;;;2.10;99.90;3.20;95373.00;;;;5085745;28;20421;-71
2022/11/22 03:07:12;;;;;;;4.83;2.87;;;4.20;99.90;3.20;95370.00;;;;5086127;28;20949;-72
2022/11/22 03:10:00;;;;;;;4.37;3.50;;;2.10;99.90;3.30;95359.00;;;;5080227;28;20877;-73
2022/11/22 03:12:49;;;;;;;6.60;4.00;;;2.10;99.90;3.40;95350.00;;;;5079392;28;20964;-73
2022/11/22 03:15:38;;;;;;;5.20;3.03;;;2.10;99.90;3.40;95362.00;;;;5088493;28;20417;-73
2022/11/22 03:18:28;;;;;;;5.67;3.80;;;2.20;99.90;3.60;95349.00;;;;5084216;28;20492;-72
2022/11/22 03:21:16;;;;;;;6.93;3.70;;;2.20;99.90;3.60;95358.00;;;;5089352;28;20947;-72
2022/11/22 03:24:07;;;;;;;9.27;3.77;;;2.30;99.90;3.70;95362.00;;;;5076754;28;20445;-72
2022/11/22 03:26:56;;;;;;;5.43;3.63;;;2.30;99.90;3.40;95349.00;;;;5089857;28;20426;-72
2022/11/22 03:29:45;;;;;;;6.50;3.97;;;2.30;99.90;3.30;95341.00;;;;5090849;28;20426;-72
2022/11/22 03:32:33;;;;;;;6.10;3.97;;;2.30;99.90;3.10;95340.00;;;;5085258;28;20466;-72
2022/11/22 03:35:23;;;;;;;3.27;2.77;;;2.30;99.90;3.10;95327.00;;;;5088459;28;20941;-71
2022/11/22 03:38:12;;;;;;;7.37;4.17;;;2.20;99.90;3.10;95335.00;;;;5087853;28;20469;-73
2022/11/22 03:41:01;;;;;;;6.93;3.80;;;2.10;99.90;3.10;95322.00;;;;5089990;28;20535;-72
2022/11/22 03:43:50;;;;;;;6.50;3.73;;;2.10;99.90;3.20;95325.00;;;;5075457;28;20434;-73
2022/11/22 03:46:39;;;;;;;5.87;3.90;;;2.10;99.90;3.40;95342.00;;;;5084312;28;20422;-72
2022/11/22 03:49:27;;;;;;;4.77;3.57;;;2.30;99.90;3.50;95338.00;;;;5079056;28;20423;-73
2022/11/22 03:52:17;;;;;;;4.17;2.93;;;2.20;99.90;3.60;95319.00;;;;5089102;28;20458;-72
2022/11/22 03:55:06;;;;;;;3.43;2.50;;;2.30;99.90;3.50;95322.00;;;;5090173;28;20474;-73
2022/11/22 03:57:55;;;;;;;6.73;4.13;;;2.30;99.90;3.50;95321.00;;;;5087116;28;20504;-72
2022/11/22 04:00:44;;;;;;;4.30;3.80;;;2.30;99.90;3.70;95310.00;;;;5084304;28;20975;-72
2022/11/22 04:03:33;;;;;;;3.50;3.30;;;2.40;99.90;3.70;95309.00;;;;5088408;28;20442;-73
2022/11/22 04:06:21;;;;;;;6.47;4.43;;;2.40;99.90;3.70;95309.00;;;;5084677;28;20796;-72
2022/11/22 04:09:12;;;;;;;13.10;7.20;;;2.50;99.90;3.80;95296.00;;;;5086828;28;20426;-72
2022/11/22 04:12:00;;;;;;;8.17;6.40;;;2.60;99.90;3.70;95296.00;;;;5088515;28;20428;-72
2022/11/22 04:15:07;;;;;;;12.27;6.60;;;2.50;99.90;3.60;95300.00;;;;5089861;28;20854;-73
2022/11/22 04:17:56;;;;;;;11.33;7.17;;;2.50;99.90;3.50;95310.00;;;;5081111;28;20473;-72
2022/11/22 04:26:56;;;;;;;14.57;8.03;;;2.30;99.90;3.30;95315.00;;;;5087382;28;20559;-73
2022/11/22 04:29:45;;;;;;;12.93;7.40;;;2.30;99.90;3.40;95315.00;;;;5087347;28;20418;-72
2022/11/22 04:32:44;;;;;;;15.47;6.90;;;2.30;99.90;3.50;95319.00;;;;5077509;28;20448;-72
2022/11/22 04:35:33;;;;;;;11.33;7.23;;;2.30;99.90;3.40;95316.00;;;;5087683;28;20474;-72
2022/11/22 04:38:22;;;;;;;12.60;6.00;;;2.30;99.90;3.30;95318.00;;;;5088643;28;21141;-71
2022/11/22 04:41:11;;;;;;;9.60;5.73;;;2.40;99.90;3.30;95299.00;;;;5088194;28;20424;-71
2022/11/22 04:47:11;;;;;;;3.47;2.80;;;2.20;99.90;3.00;95309.00;;;;5061553;28;20437;-72
2022/11/22 04:50:00;;;;;;;4.13;3.50;;;2.20;99.90;3.30;95306.00;;;;5092805;28;20898;-71
2022/11/22 04:52:53;;;;;;;5.07;3.27;;;2.30;99.90;3.70;95301.00;;;;5091297;28;20480;-73
2022/11/22 04:55:44;;;;;;;9.73;4.43;;;2.20;99.90;3.70;95310.00;;;;5093567;28;20422;-72
2022/11/22 04:58:33;;;;;;;7.50;4.57;;;2.30;99.90;3.80;95296.00;;;;5085845;28;20458;-73
2022/11/22 05:01:23;;;;;;;8.03;4.80;;;2.30;99.90;3.90;95305.00;;;;5091181;28;20425;-73
2022/11/22 05:04:11;;;;;;;8.83;5.10;;;2.40;99.90;3.90;95296.00;;;;5084962;28;20430;-72
2022/11/22 05:07:00;;;;;;;6.63;4.73;;;2.40;99.90;3.80;95288.00;;;;5079101;28;20449;-72
2022/11/22 05:09:49;;;;;;;6.57;5.43;;;2.40;99.90;3.80;95305.00;;;;5085870;28;20436;-71
2022/11/22 05:12:38;;;;;;;8.53;4.83;;;2.40;99.90;3.60;95296.00;;;;5079142;28;20449;-71
2022/11/22 05:15:26;;;;;;;9.80;4.83;;;2.50;99.90;3.40;95273.00;;;;5089222;28;20418;-72
2022/11/22 05:18:17;;;;;;;10.70;4.50;;;2.50;99.90;3.50;95261.00;;;;5083512;28;20434;-72
2022/11/22 05:21:07;;;;;;;5.40;3.60;;;2.40;99.90;3.60;95265.00;;;;5092053;28;20417;-72
2022/11/22 05:23:54;;;;;;;11.00;5.17;;;2.40;99.90;3.50;95261.00;;;;5093054;28;20499;-73
2022/11/22 05:26:43;;;;;;;6.67;4.43;;;2.40;99.90;3.60;95264.00;;;;5088196;28;20476;-72
2022/11/22 05:29:32;;;;;;;7.70;3.63;;;2.40;99.90;3.50;95271.00;;;;5088526;28;20429;-72
2022/11/22 05:32:20;;;;;;;7.17;4.13;;;2.30;99.90;3.60;95268.00;;;;5082759;28;20486;-71
2022/11/22 05:35:11;;;;;;;5.53;4.23;;;2.30;99.90;3.70;95267.00;;;;5089216;28;20477;-72
2022/11/22 05:38:00;;;;;;;6.63;5.00;;;2.50;99.90;3.80;95263.00;;;;5086132;28;20414;-72
2022/11/22 05:40:48;;;;;;;7.60;4.17;;;2.40;99.90;3.70;95254.00;;;;5091991;28;20802;-71
2022/11/22 05:43:38;;;;;;;8.00;5.00;;;2.40;99.90;3.70;95256.00;;;;5089072;28;20457;-72
2022/11/22 05:46:29;;;;;;;5.90;4.13;;;2.40;99.90;3.50;95253.00;;;;5085257;28;20522;-72
2022/11/22 05:49:18;;;;;;;7.00;5.07;;;2.40;99.90;3.40;95258.00;;;;5083815;28;20449;-72
2022/11/22 05:52:08;;;;;;;6.97;4.70;;;2.40;99.90;3.50;95251.00;;;;5081438;28;20457;-72
2022/11/22 05:54:57;;;;;;;7.67;4.73;;;2.30;99.90;3.50;95256.00;;;;5080332;28;20430;-72
2022/11/22 05:57:46;;;;;;;7.90;4.43;;;2.40;99.90;3.40;95266.00;;;;5089451;28;20471;-72
2022/11/22 06:00:34;;;;;;;12.13;6.63;;;2.30;99.90;3.40;95272.00;;;;5079849;28;20527;-71
2022/11/22 06:03:23;;;;;;;8.57;6.03;;;2.30;99.90;3.60;95272.00;;;;5078838;28;20465;-72
2022/11/22 06:06:12;;;;;;;10.47;7.33;;;2.30;99.90;3.70;95265.00;;;;5078453;28;20425;-72
2022/11/22 06:09:02;;;;;;;6.87;4.13;;;2.30;99.90;3.70;95272.00;;;;5082070;28;20474;-72
2022/11/22 06:11:50;;;;;;;8.43;5.77;;;2.30;99.90;3.80;95274.00;;;;5086358;28;20441;-72
2022/11/22 06:14:39;;;;;;;9.40;5.83;;;2.40;99.90;3.80;95279.00;;;;5083591;28;20486;-72
2022/11/22 06:17:30;;;;;;;8.03;4.83;;;2.40;99.90;3.80;95274.00;;;;5077408;28;20449;-72
2022/11/22 06:20:19;;;;;;;7.80;3.90;;;2.40;99.90;3.40;95264.00;;;;5088335;28;20469;-72
2022/11/22 06:23:08;;;;;;;6.57;4.40;;;2.40;99.90;3.60;95272.00;;;;5084429;28;20463;-71
2022/11/22 06:25:59;;;;;;;6.37;4.50;;;2.40;99.90;3.60;95267.00;;;;5083649;28;20437;-71
2022/11/22 06:28:49;;;;;;;8.20;4.93;;;2.40;99.90;3.70;95285.00;;;;5082390;28;20425;-72
2022/11/22 06:31:38;;;;;;;5.43;4.87;;;2.40;99.90;3.70;95268.00;;;;5084918;28;20552;-71
2022/11/22 06:34:26;;;;;;;8.57;5.23;;;2.40;99.90;3.60;95273.00;;;;5083717;28;20467;-72
2022/11/22 06:37:16;;;;;;;8.60;4.67;;;2.40;99.90;3.70;95283.00;;;;5079543;28;20477;-72
2022/11/22 06:40:10;;;;;;;5.27;3.83;;;2.50;99.90;3.80;95278.00;;;;5081570;28;20508;-71
2022/11/22 06:43:00;;;;;;;5.63;5.03;;;2.50;99.90;3.80;95274.00;;;;5077410;28;20956;-71
2022/11/22 06:45:49;;;;;;;7.07;4.37;;;2.50;99.90;4.00;95284.00;;;;5076112;28;20944;-71
2022/11/22 06:48:40;;;;;;;8.80;5.43;;;2.60;99.90;3.90;95282.00;;;;5083362;28;20433;-71
2022/11/22 06:51:30;;;;;;;8.60;5.63;;;2.60;99.90;4.00;95287.00;;;;5084523;28;20467;-71
2022/11/22 06:54:19;;;;;;;9.13;5.73;;;2.60;99.90;4.10;95284.00;;;;5077490;28;20925;-72
2022/11/22 06:57:08;;;;;;;8.10;5.37;;;2.70;99.90;4.00;95283.00;;;;5090327;28;20555;-71
2022/11/22 06:59:58;;;;;;;5.77;4.80;;;2.70;99.90;3.90;95284.00;;;;5082735;28;20524;-72
2022/11/22 07:02:47;;;;;;;10.07;5.43;;;2.70;99.90;3.90;95279.00;;;;5076270;28;20529;-71
2022/11/22 07:05:35;;;;;;;11.43;5.43;;;2.80;99.90;3.90;95284.00;;;;5081362;28;20430;-71
2022/11/22 07:08:24;;;;;;;11.87;5.13;;;2.70;99.90;4.10;95284.00;;;;5087037;28;21005;-71
2022/11/22 07:11:16;;;;;;;5.57;4.63;;;2.70;99.90;4.00;95288.00;;;;5089724;28;21057;-71
2022/11/22 07:14:06;;;;;;;10.07;4.87;;;2.80;99.90;3.70;95282.00;;;;5090375;28;20507;-71
2022/11/22 07:16:57;;;;;;;8.17;5.27;;;2.70;99.90;3.80;95287.00;;;;5090820;28;20426;-72
2022/11/22 07:19:46;;;;;;;6.67;5.33;;;2.70;99.90;4.20;95287.00;;;;5089616;28;20883;-70
2022/11/22 07:22:34;;;;;;;7.13;4.97;;;2.70;99.90;4.30;95278.00;;;;5089960;28;20457;-71
2022/11/22 07:25:23;;;;;;;8.67;5.30;;;2.80;99.90;3.90;95285.00;;;;5078455;28;20498;-71
2022/11/22 07:28:12;;;;;;;10.00;5.33;;;2.80;99.90;3.80;95282.00;;;;5080530;28;20457;-71
2022/11/22 07:31:02;;;;;;;6.17;4.83;;;2.80;99.90;3.80;95275.00;;;;5085103;28;20417;-71
2022/11/22 07:33:52;;;;;;;10.20;5.47;;;2.80;99.90;3.90;95274.00;;;;5086046;28;20499;-70
2022/11/22 07:36:41;;;;;;;8.20;4.97;;;2.80;99.90;4.10;95278.00;;;;5079236;28;20413;-70
2022/11/22 07:39:30;;;;;;;7.20;4.40;;;2.90;99.90;4.20;95259.00;;;;5089256;28;21067;-70
2022/11/22 07:42:18;;;;;;;9.83;6.27;;;2.90;99.90;4.10;95258.00;;;;5089679;28;20979;-71
2022/11/22 07:45:11;;;;;;;8.27;5.23;;;2.90;99.90;3.90;95263.00;;;;5090739;28;20426;-70
2022/11/22 07:48:00;;;;;;;6.27;4.97;;;2.90;99.90;4.00;95262.00;;;;5070977;28;20427;-70
2022/11/22 07:50:50;;;;;;;7.80;4.73;;;2.90;99.90;4.30;95266.00;;;;5088770;28;20434;-70
2022/11/22 07:53:38;;;;;;;6.63;4.90;;;3.00;99.90;4.40;95265.00;;;;5088903;28;20481;-70
2022/11/22 07:56:27;;;;;;;10.80;5.73;;;3.00;99.90;4.60;95270.00;;;;5090254;28;20453;-70
2022/11/22 07:59:16;;;;;;;12.23;5.23;;;3.10;99.90;4.80;95269.00;;;;5077677;28;20463;-71
2022/11/22 08:02:05;;;;;;;15.03;6.50;;;3.20;99.90;4.80;95267.00;;;;5090520;28;20471;-70
2022/11/22 08:04:54;;;;;;;8.17;5.87;;;3.20;99.90;4.80;95278.00;;;;5072216;28;20421;-70
2022/11/22 08:07:47;;;;;;;8.20;5.50;;;3.30;99.90;4.60;95285.00;;;;5080621;28;20414;-70
2022/11/22 08:10:36;;;;;;;7.70;5.20;;;3.30;99.90;4.60;95280.00;;;;5078211;28;20428;-70
2022/11/22 08:13:25;;;;;;;7.23;5.03;;;3.40;99.90;4.70;95293.00;;;;5086168;28;20445;-69
2022/11/22 08:16:16;;;;;;;9.33;6.10;;;3.40;99.90;4.80;95291.00;;;;5076970;28;20463;-70
2022/11/22 08:19:05;;;;;;;11.63;5.67;;;3.40;99.90;4.80;95284.00;;;;5079196;28;20260;-70
2022/11/22 08:21:54;;;;;;;7.50;5.67;;;3.50;99.90;4.80;95290.00;;;;5081832;28;20428;-70
2022/11/22 08:24:47;;;;;;;8.73;5.97;;;4.80;99.90;4.90;95286.00;;;;5073996;28;20421;-70
2022/11/22 08:27:35;;;;;;;10.17;6.77;;;3.60;99.90;5.10;95292.00;;;;5083201;28;20413;-70
2022/11/22 08:30:24;;;;;;;8.73;6.43;;;3.60;99.90;5.50;95295.00;;;;5088225;28;20436;-70
2022/11/22 08:33:13;;;;;;;11.43;7.03;;;3.70;99.90;5.70;95294.00;;;;5079932;28;20434;-71
2022/11/22 08:36:02;;;;;;;12.93;6.67;;;3.90;99.90;5.80;95309.00;;;;5086191;28;20422;-70
2022/11/22 08:38:50;;;;;;;14.00;7.67;;;4.00;99.90;5.90;95300.00;;;;5088205;28;20192;-70
2022/11/22 08:41:41;;;;;;;12.37;6.40;;;4.20;99.90;6.10;95306.00;;;;5088544;28;20288;-69
2022/11/22 08:44:29;;;;;;;9.20;5.80;;;6.00;99.90;6.10;95304.00;;;;5089410;28;20691;-70
2022/11/22 08:47:18;;;;;;;8.27;6.57;;;4.40;99.90;6.10;95311.00;;;;5087444;28;20218;-71
2022/11/22 08:50:08;;;;;;;10.20;7.00;;;4.50;99.90;6.20;95307.00;;;;5087857;28;20196;-70
2022/11/22 08:52:57;;;;;;;12.23;6.17;;;4.60;99.90;6.30;95305.00;;;;5078331;28;20262;-70
2022/11/22 08:55:46;;;;;;;9.63;6.73;;;4.60;99.90;6.40;95302.00;;;;5088351;28;20195;-70
2022/11/22 08:58:36;;;;;;;12.70;7.77;;;4.70;99.90;6.40;95305.00;;;;5088383;28;20667;-70
2022/11/22 09:01:25;;;;;;;8.57;7.07;;;4.80;99.90;6.50;95296.00;;;;5087183;28;20302;-70
2022/11/22 09:04:14;;;;;;;10.70;8.57;;;4.80;99.90;6.50;95300.00;;;;5085012;28;20203;-70
2022/11/22 09:07:02;;;;;;;10.87;6.57;;;4.90;99.90;6.60;95302.00;;;;5074379;28;20191;-70
2022/11/22 09:10:11;;;;;;;9.80;7.10;;;4.90;99.90;6.70;95321.00;;;;5087964;28;20200;-70
2022/11/22 09:12:59;;;;;;;12.33;7.40;;;5.00;99.90;6.70;95316.00;;;;5081148;28;20219;-70
2022/11/22 09:15:49;;;;;;;11.70;7.77;;;5.00;99.90;6.70;95313.00;;;;5077782;28;20245;-70
2022/11/22 09:18:38;;;;;;;11.33;6.53;;;5.10;99.90;6.80;95313.00;;;;5077556;28;20281;-70
2022/11/22 09:21:27;;;;;;;11.67;6.93;;;5.10;99.90;6.60;95307.00;;;;5084248;28;20309;-70
2022/11/22 09:24:16;;;;;;;12.73;8.33;;;5.10;99.90;6.50;95296.00;;;;5088332;28;20674;-70
2022/11/22 09:27:05;;;;;;;14.77;8.07;;;5.10;99.90;6.50;95295.00;;;;5080945;28;20210;-70
2022/11/22 09:29:54;;;;;;;8.60;6.00;;;5.10;99.90;6.50;95304.00;;;;5087877;28;20670;-70
2022/11/22 09:32:45;;;;;;;16.07;6.80;;;5.20;99.90;6.60;95294.00;;;;5083491;28;20939;-70
2022/11/22 09:35:33;;;;;;;11.83;7.27;;;5.10;99.90;6.90;95296.00;;;;5079816;28;20199;-70
2022/11/22 09:38:22;;;;;;;12.57;7.53;;;5.20;99.90;6.90;95300.00;;;;5083077;28;20210;-70
2022/11/22 09:41:23;;;;;;;9.23;6.83;;;5.20;99.90;7.00;95290.00;;;;5087042;28;20216;-70
2022/11/22 09:44:19;;;;;;;17.90;7.87;;;5.30;99.90;7.00;95288.00;;;;5092858;28;20238;-70
2022/11/22 09:47:20;;;;;;;11.60;6.83;;;5.30;99.90;6.60;95288.00;;;;5091221;28;20196;-70
2022/11/22 09:50:20;;;;;;;13.37;7.80;;;5.30;99.90;6.80;95271.00;;;;5091278;28;20219;-70
2022/11/22 09:53:18;;;;;;;10.33;7.30;;;5.20;99.90;6.90;95261.00;;;;5091608;28;20741;-70
2022/11/22 09:56:12;;;;;;;14.90;7.70;;;5.30;99.90;6.90;95247.00;;;;5092125;28;20195;-70
2022/11/22 09:59:06;;;;;;;11.80;7.33;;;5.30;99.90;7.00;95245.00;;;;5077178;28;20300;-70
2022/11/22 10:02:01;;;;;;;10.23;7.40;;;5.30;99.90;7.00;95248.00;;;;5090322;28;20283;-70
2022/11/22 10:04:59;;;;;;;25.57;8.70;;;5.40;99.90;7.10;95256.00;;;;5087084;28;20209;-70
2022/11/22 10:07:55;;;;;;;9.67;7.07;;;5.50;99.90;7.10;95248.00;;;;5091220;28;20250;-70
2022/11/22 10:10:44;;;;;;;14.47;8.20;;;5.40;99.90;7.20;95247.00;;;;5081767;28;20204;-70
2022/11/22 10:13:40;;;;;;;13.63;8.93;;;5.50;99.90;7.30;95227.00;;;;5087355;28;20697;-70
2022/11/22 10:16:35;;;;;;;12.73;7.60;;;5.50;99.90;7.20;95233.00;;;;5085828;28;20297;-69
2022/11/22 10:19:34;;;;;;;18.23;9.57;;;5.60;99.90;7.30;95228.00;;;;5090179;28;20230;-69
2022/11/22 10:22:23;;;;;;;11.73;7.13;;;5.60;99.90;7.40;95217.00;;;;5092486;28;20296;-70
2022/11/22 10:25:18;;;;;;;15.23;7.23;;;5.70;99.90;7.30;95205.00;;;;5083045;28;20214;-70
2022/11/22 10:28:17;;;;;;;11.47;7.17;;;5.70;99.90;7.30;95194.00;;;;5081289;28;20243;-69
2022/11/22 10:31:16;;;;;;;10.80;8.73;;;5.70;99.90;7.20;95187.00;;;;5089904;28;20248;-70
2022/11/22 10:34:16;;;;;;;14.53;8.47;;;5.70;99.90;7.40;95172.00;;;;5088520;28;20218;-70
2022/11/22 10:37:16;;;;;;;12.43;7.83;;;5.80;99.90;7.50;95163.00;;;;5080492;28;20208;-70
2022/11/22 10:40:18;;;;;;;19.57;10.57;;;5.80;99.90;7.50;95155.00;;;;5081541;28;20199;-70
2022/11/22 10:43:30;;;;;;;13.57;8.47;;;5.80;99.90;6.90;95143.00;;;;5085992;28;20604;-70
2022/11/22 10:46:29;;;;;;;10.07;7.03;;;5.80;99.90;6.70;95135.00;;;;5070417;28;20203;-70
2022/11/22 10:49:27;;;;;;;11.47;7.80;;;5.70;99.90;6.90;95124.00;;;;5090236;28;20265;-71
2022/11/22 10:52:29;;;;;;;16.87;7.07;;;5.60;99.90;6.90;95115.00;;;;5089716;28;20235;-71
2022/11/22 10:55:38;;;;;;;14.13;7.57;;;5.70;99.90;6.90;95128.00;;;;5089367;28;20669;-71
2022/11/22 10:58:38;;;;;;;13.87;7.83;;;5.60;99.90;6.80;95120.00;;;;5089972;28;20199;-71
2022/11/22 11:01:34;;;;;;;9.53;7.97;;;5.60;99.90;6.90;95100.00;;;;5086907;28;20269;-70
2022/11/22 11:04:28;;;;;;;15.00;8.80;;;5.60;99.90;6.90;95097.00;;;;5081724;28;20206;-70
2022/11/22 11:07:21;;;;;;;8.87;6.97;;;5.60;99.90;7.10;95085.00;;;;5083731;28;20234;-70
2022/11/22 11:10:17;;;;;;;12.40;7.47;;;5.70;99.90;7.60;95096.00;;;;5088197;28;20203;-70
2022/11/22 11:13:24;;;;;;;17.63;7.83;;;5.80;99.90;7.60;95089.00;;;;5086308;28;20353;-70
2022/11/22 11:16:19;;;;;;;14.87;7.83;;;5.90;99.90;7.80;95080.00;;;;5092573;28;20213;-70
2022/11/22 11:19:17;;;;;;;12.27;6.33;;;6.00;99.90;7.90;95075.00;;;;5076545;28;20203;-70
2022/11/22 11:22:16;;;;;;;9.40;7.10;;;6.20;99.90;7.50;95057.00;;;;5086605;28;20231;-70
2022/11/22 11:25:32;;;;;;;10.33;7.03;;;6.20;99.90;7.90;95059.00;;;;5085407;28;20203;-70
2022/11/22 11:28:26;;;;;;;9.53;7.17;;;6.30;99.90;7.80;95069.00;;;;5078224;28;20299;-70
2022/11/22 11:31:17;;;;;;;10.03;6.57;;;6.30;99.90;8.10;95065.00;;;;5082398;28;20251;-70
2022/11/22 11:34:21;;;;;;;10.07;6.57;;;6.40;99.90;7.80;95076.00;;;;5083130;28;20694;-71
2022/11/22 11:37:31;;;;;;;9.50;6.23;;;6.50;99.90;7.80;95082.00;;;;5080722;28;20256;-71
2022/11/22 11:40:28;;;;;;;9.97;6.83;;;6.50;99.90;7.80;95080.00;;;;5080136;28;20203;-70
2022/11/22 11:43:22;;;;;;;8.47;6.00;;;6.50;99.90;8.10;95089.00;;;;5078623;28;20278;-70
2022/11/22 11:46:17;;;;;;;10.93;6.83;;;6.60;99.90;8.10;95082.00;;;;5086516;28;20218;-70
2022/11/22 11:49:13;;;;;;;9.80;6.07;;;6.60;99.90;8.20;95087.00;;;;5073932;28;20320;-70
2022/11/22 11:52:05;;;;;;;10.13;6.73;;;6.70;99.90;8.10;95094.00;;;;5083818;28;20211;-70
2022/11/22 11:54:57;;;;;;;12.80;6.13;;;6.70;99.90;8.00;95104.00;;;;5084776;28;20198;-70
2022/11/22 11:57:46;;;;;;;10.17;7.37;;;6.70;99.90;8.20;95112.00;;;;5079094;28;20192;-71
2022/11/22 12:00:40;;;;;;;9.50;6.63;;;6.70;99.90;8.10;95113.00;;;;5080347;28;21078;-70
2022/11/22 12:03:28;;;;;;;9.53;6.03;;;6.60;99.90;8.00;95110.00;;;;5081267;28;20224;-71
2022/11/22 12:06:18;;;;;;;11.43;6.93;;;6.60;99.90;8.20;95109.00;;;;5078365;28;20278;-70
2022/11/22 12:09:28;;;;;;;13.23;5.73;;;6.50;99.90;8.30;95111.00;;;;5089133;28;20666;-70
2022/11/22 12:12:39;;;;;;;6.33;5.03;;;6.70;99.90;8.20;95103.00;;;;5075640;28;20238;-70
2022/11/22 12:15:39;;;;;;;9.10;5.57;;;6.70;99.90;8.30;95110.00;;;;5088254;28;20677;-70
2022/11/22 12:18:37;;;;;;;10.67;5.30;;;6.70;99.90;8.30;95101.00;;;;5076073;28;20196;-70
2022/11/22 12:21:36;;;;;;;8.70;5.40;;;6.70;99.90;8.40;95098.00;;;;5080915;28;20206;-70
2022/11/22 12:24:32;;;;;;;8.63;5.63;;;6.70;99.90;8.20;95099.00;;;;5076099;28;20204;-70
2022/11/22 12:27:40;;;;;;;7.00;4.67;;;6.80;99.90;8.30;95100.00;;;;5073663;28;20710;-70
2022/11/22 12:30:29;;;;;;;6.67;4.67;;;6.80;99.90;8.10;95103.00;;;;5087550;28;20248;-70
2022/11/22 12:33:27;;;;;;;8.00;5.07;;;6.70;99.90;8.20;95099.00;;;;5080244;28;20215;-71
2022/11/22 12:36:21;;;;;;;8.50;6.57;;;6.70;99.90;8.40;95114.00;;;;5077475;28;20234;-70
2022/11/22 12:39:17;;;;;;;7.57;5.00;;;6.80;99.90;8.50;95101.00;;;;5084080;28;20207;-70
2022/11/22 12:42:14;;;;;;;10.77;4.90;;;6.80;99.90;8.50;95111.00;;;;5082328;28;20322;-70
2022/11/22 12:45:16;;;;;;;7.53;5.67;;;6.90;99.90;8.60;95119.00;;;;5077421;28;20195;-71
2022/11/22 12:48:08;;;;;;;8.47;5.17;;;6.90;99.90;8.70;95130.00;;;;5088572;28;20215;-70
2022/11/22 12:51:06;;;;;;;9.40;4.93;;;6.90;99.90;8.80;95143.00;;;;5086993;28;20203;-70
2022/11/22 12:54:00;;;;;;;7.80;5.43;;;7.00;99.90;8.80;95141.00;;;;5089581;28;20226;-70
2022/11/22 12:56:53;;;;;;;10.07;7.03;;;7.10;99.90;8.80;95155.00;;;;5084112;28;20198;-71
2022/11/22 12:59:51;;;;;;;11.17;7.07;;;7.10;99.90;8.70;95162.00;;;;5080068;28;20199;-70
2022/11/22 13:02:46;;;;;;;9.87;6.53;;;7.20;99.90;8.60;95151.00;;;;5081153;28;20284;-70
2022/11/22 13:05:40;;;;;;;11.60;7.20;;;7.10;99.90;8.50;95153.00;;;;5087186;28;21375;-70